sensor_id;sensor_type;location;lat;lon;timestamp;P1;durP1;ratioP1;P2;durP2;ratioP2
55090;SDS011;40985;53.180;5.800;2024-03-17T00:01:03;3.00;;;0.70;;
55090;SDS011;40985;53.180;5.800;2024-03-17T00:03:29;4.97;;;1.13;;
55090;SDS011;40985;53.180;5.800;2024-03-17T00:05:56;3.40;;;0.63;;
55090;SDS011;40985;53.180;5.800;2024-03-17T00:08:22;4.60;;;1.63;;
55090;SDS011;40985;53.180;5.800;2024-03-17T00:10:54;5.05;;;1.17;;
55090;SDS011;40985;53.180;5.800;2024-03-17T00:13:20;5.23;;;1.00;;
55090;SDS011;40985;53.180;5.800;2024-03-17T00:15:47;3.80;;;1.52;;
55090;SDS011;40985;53.180;5.800;2024-03-17T00:18:13;5.57;;;0.70;;
55090;SDS011;40985;53.180;5.800;2024-03-17T00:20:39;4.47;;;1.08;;
55090;SDS011;40985;53.180;5.800;2024-03-17T00:23:05;4.45;;;1.00;;
55090;SDS011;40985;53.180;5.800;2024-03-17T00:25:34;4.18;;;0.80;;
55090;SDS011;40985;53.180;5.800;2024-03-17T00:28:01;6.00;;;0.85;;
55090;SDS011;40985;53.180;5.800;2024-03-17T00:30:27;2.78;;;0.70;;
55090;SDS011;40985;53.180;5.800;2024-03-17T00:32:53;2.22;;;0.75;;
55090;SDS011;40985;53.180;5.800;2024-03-17T00:35:19;1.83;;;0.68;;
55090;SDS011;40985;53.180;5.800;2024-03-17T00:37:47;7.10;;;1.10;;
55090;SDS011;40985;53.180;5.800;2024-03-17T00:40:14;4.38;;;0.70;;
55090;SDS011;40985;53.180;5.800;2024-03-17T00:42:41;3.25;;;0.90;;
55090;SDS011;40985;53.180;5.800;2024-03-17T00:45:07;4.22;;;1.60;;
55090;SDS011;40985;53.180;5.800;2024-03-17T00:47:35;4.80;;;0.77;;
55090;SDS011;40985;53.180;5.800;2024-03-17T00:50:01;3.15;;;0.82;;
55090;SDS011;40985;53.180;5.800;2024-03-17T00:52:28;6.13;;;0.90;;
55090;SDS011;40985;53.180;5.800;2024-03-17T00:54:54;4.93;;;0.65;;
55090;SDS011;40985;53.180;5.800;2024-03-17T00:57:20;3.35;;;0.70;;
55090;SDS011;40985;53.180;5.800;2024-03-17T00:59:45;2.75;;;0.68;;
55090;SDS011;40985;53.180;5.800;2024-03-17T01:02:11;3.38;;;0.75;;
55090;SDS011;40985;53.180;5.800;2024-03-17T01:04:39;6.38;;;1.33;;
55090;SDS011;40985;53.180;5.800;2024-03-17T01:07:05;2.05;;;0.47;;
55090;SDS011;40985;53.180;5.800;2024-03-17T01:09:31;5.82;;;0.88;;
55090;SDS011;40985;53.180;5.800;2024-03-17T01:11:56;3.97;;;1.25;;
55090;SDS011;40985;53.180;5.800;2024-03-17T01:14:22;3.05;;;0.77;;
55090;SDS011;40985;53.180;5.800;2024-03-17T01:16:49;8.75;;;1.17;;
55090;SDS011;40985;53.180;5.800;2024-03-17T01:19:16;5.20;;;0.63;;
55090;SDS011;40985;53.180;5.800;2024-03-17T01:21:42;4.82;;;0.68;;
55090;SDS011;40985;53.180;5.800;2024-03-17T01:24:08;4.07;;;0.70;;
55090;SDS011;40985;53.180;5.800;2024-03-17T01:26:33;4.57;;;0.60;;
55090;SDS011;40985;53.180;5.800;2024-03-17T01:28:59;4.63;;;0.98;;
55090;SDS011;40985;53.180;5.800;2024-03-17T01:31:24;6.60;;;1.33;;
55090;SDS011;40985;53.180;5.800;2024-03-17T01:33:50;6.35;;;0.98;;
55090;SDS011;40985;53.180;5.800;2024-03-17T01:36:16;2.33;;;0.70;;
55090;SDS011;40985;53.180;5.800;2024-03-17T01:38:41;3.55;;;0.60;;
55090;SDS011;40985;53.180;5.800;2024-03-17T01:41:07;4.85;;;0.70;;
55090;SDS011;40985;53.180;5.800;2024-03-17T01:43:33;2.80;;;0.60;;
55090;SDS011;40985;53.180;5.800;2024-03-17T01:45:58;2.30;;;0.70;;
55090;SDS011;40985;53.180;5.800;2024-03-17T01:48:24;4.05;;;1.30;;
55090;SDS011;40985;53.180;5.800;2024-03-17T01:50:52;3.45;;;0.75;;
55090;SDS011;40985;53.180;5.800;2024-03-17T01:53:20;4.32;;;0.43;;
55090;SDS011;40985;53.180;5.800;2024-03-17T01:55:49;4.43;;;0.50;;
55090;SDS011;40985;53.180;5.800;2024-03-17T01:58:15;3.35;;;0.60;;
55090;SDS011;40985;53.180;5.800;2024-03-17T02:00:42;4.88;;;1.52;;
55090;SDS011;40985;53.180;5.800;2024-03-17T02:03:08;3.55;;;0.60;;
55090;SDS011;40985;53.180;5.800;2024-03-17T02:05:35;3.45;;;0.70;;
55090;SDS011;40985;53.180;5.800;2024-03-17T02:08:03;5.68;;;1.05;;
55090;SDS011;40985;53.180;5.800;2024-03-17T02:10:29;4.97;;;0.85;;
55090;SDS011;40985;53.180;5.800;2024-03-17T02:12:55;3.50;;;0.95;;
55090;SDS011;40985;53.180;5.800;2024-03-17T02:15:21;4.20;;;1.02;;
55090;SDS011;40985;53.180;5.800;2024-03-17T02:17:47;3.97;;;1.10;;
55090;SDS011;40985;53.180;5.800;2024-03-17T02:20:12;2.67;;;1.00;;
55090;SDS011;40985;53.180;5.800;2024-03-17T02:22:39;11.15;;;1.55;;
55090;SDS011;40985;53.180;5.800;2024-03-17T02:25:05;5.10;;;1.40;;
55090;SDS011;40985;53.180;5.800;2024-03-17T02:27:33;5.82;;;1.85;;
55090;SDS011;40985;53.180;5.800;2024-03-17T02:30:00;5.55;;;1.33;;
55090;SDS011;40985;53.180;5.800;2024-03-17T02:32:26;5.85;;;1.38;;
55090;SDS011;40985;53.180;5.800;2024-03-17T02:34:52;6.03;;;1.75;;
55090;SDS011;40985;53.180;5.800;2024-03-17T02:37:18;3.47;;;1.25;;
55090;SDS011;40985;53.180;5.800;2024-03-17T02:39:44;3.58;;;1.15;;
55090;SDS011;40985;53.180;5.800;2024-03-17T02:42:10;6.95;;;1.55;;
55090;SDS011;40985;53.180;5.800;2024-03-17T02:44:36;5.97;;;1.27;;
55090;SDS011;40985;53.180;5.800;2024-03-17T02:47:03;3.13;;;1.15;;
55090;SDS011;40985;53.180;5.800;2024-03-17T02:49:30;6.57;;;2.03;;
55090;SDS011;40985;53.180;5.800;2024-03-17T02:52:02;3.05;;;1.45;;
55090;SDS011;40985;53.180;5.800;2024-03-17T02:54:29;5.10;;;1.30;;
55090;SDS011;40985;53.180;5.800;2024-03-17T02:56:55;9.05;;;2.00;;
55090;SDS011;40985;53.180;5.800;2024-03-17T02:59:21;8.80;;;1.33;;
55090;SDS011;40985;53.180;5.800;2024-03-17T03:01:47;6.63;;;1.65;;
55090;SDS011;40985;53.180;5.800;2024-03-17T03:04:12;7.05;;;1.75;;
55090;SDS011;40985;53.180;5.800;2024-03-17T03:06:38;3.70;;;2.00;;
55090;SDS011;40985;53.180;5.800;2024-03-17T03:09:04;3.67;;;1.13;;
55090;SDS011;40985;53.180;5.800;2024-03-17T03:11:40;5.28;;;1.42;;
55090;SDS011;40985;53.180;5.800;2024-03-17T03:14:06;7.68;;;1.23;;
55090;SDS011;40985;53.180;5.800;2024-03-17T03:16:32;6.35;;;1.15;;
55090;SDS011;40985;53.180;5.800;2024-03-17T03:18:58;5.75;;;1.10;;
55090;SDS011;40985;53.180;5.800;2024-03-17T03:21:24;6.97;;;1.08;;
55090;SDS011;40985;53.180;5.800;2024-03-17T03:23:50;6.72;;;1.23;;
55090;SDS011;40985;53.180;5.800;2024-03-17T03:26:16;7.03;;;0.77;;
55090;SDS011;40985;53.180;5.800;2024-03-17T03:28:43;6.75;;;1.35;;
55090;SDS011;40985;53.180;5.800;2024-03-17T03:31:12;7.43;;;2.08;;
55090;SDS011;40985;53.180;5.800;2024-03-17T03:33:39;5.43;;;1.20;;
55090;SDS011;40985;53.180;5.800;2024-03-17T03:38:35;9.77;;;1.15;;
55090;SDS011;40985;53.180;5.800;2024-03-17T03:41:11;9.27;;;1.33;;
55090;SDS011;40985;53.180;5.800;2024-03-17T03:43:38;8.13;;;1.20;;
55090;SDS011;40985;53.180;5.800;2024-03-17T03:46:04;8.27;;;1.00;;
55090;SDS011;40985;53.180;5.800;2024-03-17T03:48:31;7.93;;;1.13;;
55090;SDS011;40985;53.180;5.800;2024-03-17T03:50:59;7.45;;;1.00;;
55090;SDS011;40985;53.180;5.800;2024-03-17T03:53:34;6.15;;;1.20;;
55090;SDS011;40985;53.180;5.800;2024-03-17T03:56:02;6.57;;;1.40;;
55090;SDS011;40985;53.180;5.800;2024-03-17T03:58:31;7.78;;;1.20;;
55090;SDS011;40985;53.180;5.800;2024-03-17T04:01:00;5.63;;;1.10;;
55090;SDS011;40985;53.180;5.800;2024-03-17T04:03:36;10.63;;;1.58;;
55090;SDS011;40985;53.180;5.800;2024-03-17T04:06:06;5.93;;;1.10;;
55090;SDS011;40985;53.180;5.800;2024-03-17T04:08:34;8.32;;;1.30;;
55090;SDS011;40985;53.180;5.800;2024-03-17T04:11:00;10.38;;;1.85;;
55090;SDS011;40985;53.180;5.800;2024-03-17T04:13:27;7.70;;;1.23;;
55090;SDS011;40985;53.180;5.800;2024-03-17T04:16:05;7.80;;;1.10;;
55090;SDS011;40985;53.180;5.800;2024-03-17T04:18:31;12.02;;;1.73;;
55090;SDS011;40985;53.180;5.800;2024-03-17T04:21:03;7.82;;;0.98;;
55090;SDS011;40985;53.180;5.800;2024-03-17T04:23:29;9.43;;;1.10;;
55090;SDS011;40985;53.180;5.800;2024-03-17T04:25:58;5.25;;;1.13;;
55090;SDS011;40985;53.180;5.800;2024-03-17T04:28:25;5.50;;;0.90;;
55090;SDS011;40985;53.180;5.800;2024-03-17T04:30:51;5.05;;;0.68;;
55090;SDS011;40985;53.180;5.800;2024-03-17T04:33:17;6.20;;;1.10;;
55090;SDS011;40985;53.180;5.800;2024-03-17T04:35:43;4.47;;;0.80;;
55090;SDS011;40985;53.180;5.800;2024-03-17T04:38:08;8.88;;;1.48;;
55090;SDS011;40985;53.180;5.800;2024-03-17T04:40:34;4.05;;;0.95;;
55090;SDS011;40985;53.180;5.800;2024-03-17T04:43:05;6.95;;;0.70;;
55090;SDS011;40985;53.180;5.800;2024-03-17T04:45:31;6.15;;;0.82;;
55090;SDS011;40985;53.180;5.800;2024-03-17T04:47:57;5.28;;;1.10;;
55090;SDS011;40985;53.180;5.800;2024-03-17T04:50:23;6.28;;;0.80;;
55090;SDS011;40985;53.180;5.800;2024-03-17T04:52:48;8.38;;;1.15;;
55090;SDS011;40985;53.180;5.800;2024-03-17T04:55:14;8.85;;;1.10;;
55090;SDS011;40985;53.180;5.800;2024-03-17T04:57:42;9.05;;;1.10;;
55090;SDS011;40985;53.180;5.800;2024-03-17T05:00:09;5.68;;;0.60;;
55090;SDS011;40985;53.180;5.800;2024-03-17T05:02:37;2.58;;;0.45;;
55090;SDS011;40985;53.180;5.800;2024-03-17T05:05:03;5.07;;;0.57;;
55090;SDS011;40985;53.180;5.800;2024-03-17T05:07:30;5.03;;;0.77;;
55090;SDS011;40985;53.180;5.800;2024-03-17T05:09:56;12.45;;;1.15;;
55090;SDS011;40985;53.180;5.800;2024-03-17T05:12:22;8.05;;;0.73;;
55090;SDS011;40985;53.180;5.800;2024-03-17T05:14:48;8.60;;;1.10;;
55090;SDS011;40985;53.180;5.800;2024-03-17T05:17:13;5.82;;;0.65;;
55090;SDS011;40985;53.180;5.800;2024-03-17T05:19:39;8.27;;;0.63;;
55090;SDS011;40985;53.180;5.800;2024-03-17T05:22:05;7.03;;;0.60;;
55090;SDS011;40985;53.180;5.800;2024-03-17T05:24:31;6.15;;;0.60;;
55090;SDS011;40985;53.180;5.800;2024-03-17T05:26:56;10.00;;;0.88;;
55090;SDS011;40985;53.180;5.800;2024-03-17T05:29:22;6.05;;;0.63;;
55090;SDS011;40985;53.180;5.800;2024-03-17T05:31:48;4.65;;;0.50;;
55090;SDS011;40985;53.180;5.800;2024-03-17T05:34:15;5.13;;;0.50;;
55090;SDS011;40985;53.180;5.800;2024-03-17T05:36:40;5.32;;;1.33;;
55090;SDS011;40985;53.180;5.800;2024-03-17T05:39:06;10.45;;;0.80;;
55090;SDS011;40985;53.180;5.800;2024-03-17T05:41:32;4.28;;;0.70;;
55090;SDS011;40985;53.180;5.800;2024-03-17T05:43:58;7.68;;;0.60;;
55090;SDS011;40985;53.180;5.800;2024-03-17T05:46:24;4.93;;;0.75;;
55090;SDS011;40985;53.180;5.800;2024-03-17T05:48:53;3.05;;;0.80;;
55090;SDS011;40985;53.180;5.800;2024-03-17T05:51:19;9.73;;;1.05;;
55090;SDS011;40985;53.180;5.800;2024-03-17T05:53:45;5.95;;;0.60;;
55090;SDS011;40985;53.180;5.800;2024-03-17T05:56:11;8.10;;;2.20;;
55090;SDS011;40985;53.180;5.800;2024-03-17T05:58:40;8.88;;;1.42;;
55090;SDS011;40985;53.180;5.800;2024-03-17T06:01:06;4.93;;;0.50;;
55090;SDS011;40985;53.180;5.800;2024-03-17T06:03:36;6.07;;;1.17;;
55090;SDS011;40985;53.180;5.800;2024-03-17T06:06:02;4.97;;;1.17;;
55090;SDS011;40985;53.180;5.800;2024-03-17T06:08:29;6.22;;;1.05;;
55090;SDS011;40985;53.180;5.800;2024-03-17T06:10:55;9.80;;;1.20;;
55090;SDS011;40985;53.180;5.800;2024-03-17T06:13:25;7.70;;;0.95;;
55090;SDS011;40985;53.180;5.800;2024-03-17T06:15:51;5.32;;;0.90;;
55090;SDS011;40985;53.180;5.800;2024-03-17T06:18:17;11.45;;;1.05;;
55090;SDS011;40985;53.180;5.800;2024-03-17T06:20:44;4.07;;;0.95;;
55090;SDS011;40985;53.180;5.800;2024-03-17T06:23:11;6.55;;;0.50;;
55090;SDS011;40985;53.180;5.800;2024-03-17T06:25:40;6.22;;;0.77;;
55090;SDS011;40985;53.180;5.800;2024-03-17T06:28:11;7.78;;;1.00;;
55090;SDS011;40985;53.180;5.800;2024-03-17T06:30:53;5.68;;;1.13;;
55090;SDS011;40985;53.180;5.800;2024-03-17T06:33:29;10.18;;;1.10;;
55090;SDS011;40985;53.180;5.800;2024-03-17T06:35:56;6.50;;;0.95;;
55090;SDS011;40985;53.180;5.800;2024-03-17T06:38:21;6.13;;;1.70;;
55090;SDS011;40985;53.180;5.800;2024-03-17T06:40:48;8.32;;;1.35;;
55090;SDS011;40985;53.180;5.800;2024-03-17T06:43:15;4.50;;;1.02;;
55090;SDS011;40985;53.180;5.800;2024-03-17T06:45:41;7.57;;;1.88;;
55090;SDS011;40985;53.180;5.800;2024-03-17T06:48:06;8.10;;;1.48;;
55090;SDS011;40985;53.180;5.800;2024-03-17T06:50:32;6.93;;;1.25;;
55090;SDS011;40985;53.180;5.800;2024-03-17T06:52:58;10.15;;;2.55;;
55090;SDS011;40985;53.180;5.800;2024-03-17T06:55:23;5.93;;;1.00;;
55090;SDS011;40985;53.180;5.800;2024-03-17T06:57:49;5.68;;;1.30;;
55090;SDS011;40985;53.180;5.800;2024-03-17T07:00:16;9.65;;;1.80;;
55090;SDS011;40985;53.180;5.800;2024-03-17T07:02:43;6.95;;;1.55;;
55090;SDS011;40985;53.180;5.800;2024-03-17T07:05:13;7.03;;;1.08;;
55090;SDS011;40985;53.180;5.800;2024-03-17T07:07:39;9.40;;;1.77;;
55090;SDS011;40985;53.180;5.800;2024-03-17T07:10:06;7.35;;;1.95;;
55090;SDS011;40985;53.180;5.800;2024-03-17T07:12:33;9.82;;;1.85;;
55090;SDS011;40985;53.180;5.800;2024-03-17T07:14:59;6.05;;;1.38;;
55090;SDS011;40985;53.180;5.800;2024-03-17T07:17:25;8.52;;;1.73;;
55090;SDS011;40985;53.180;5.800;2024-03-17T07:19:50;6.22;;;2.28;;
55090;SDS011;40985;53.180;5.800;2024-03-17T07:22:16;5.80;;;1.60;;
55090;SDS011;40985;53.180;5.800;2024-03-17T07:24:43;7.35;;;1.85;;
55090;SDS011;40985;53.180;5.800;2024-03-17T07:27:09;6.18;;;2.00;;
55090;SDS011;40985;53.180;5.800;2024-03-17T07:29:38;14.23;;;2.50;;
55090;SDS011;40985;53.180;5.800;2024-03-17T07:32:04;8.18;;;2.15;;
55090;SDS011;40985;53.180;5.800;2024-03-17T07:34:33;7.68;;;2.40;;
55090;SDS011;40985;53.180;5.800;2024-03-17T07:37:00;8.88;;;2.38;;
55090;SDS011;40985;53.180;5.800;2024-03-17T07:39:30;7.80;;;2.58;;
55090;SDS011;40985;53.180;5.800;2024-03-17T07:42:00;6.93;;;2.53;;
55090;SDS011;40985;53.180;5.800;2024-03-17T07:44:27;10.95;;;2.60;;
55090;SDS011;40985;53.180;5.800;2024-03-17T07:46:54;6.32;;;1.92;;
55090;SDS011;40985;53.180;5.800;2024-03-17T07:49:20;11.90;;;2.88;;
55090;SDS011;40985;53.180;5.800;2024-03-17T07:51:46;4.88;;;2.08;;
55090;SDS011;40985;53.180;5.800;2024-03-17T07:54:12;5.88;;;2.58;;
55090;SDS011;40985;53.180;5.800;2024-03-17T07:56:38;5.68;;;2.28;;
55090;SDS011;40985;53.180;5.800;2024-03-17T07:59:04;10.43;;;2.20;;
55090;SDS011;40985;53.180;5.800;2024-03-17T08:01:37;7.15;;;2.08;;
55090;SDS011;40985;53.180;5.800;2024-03-17T08:04:03;7.70;;;3.00;;
55090;SDS011;40985;53.180;5.800;2024-03-17T08:06:29;7.90;;;1.83;;
55090;SDS011;40985;53.180;5.800;2024-03-17T08:08:55;8.82;;;2.30;;
55090;SDS011;40985;53.180;5.800;2024-03-17T08:11:20;9.23;;;2.90;;
55090;SDS011;40985;53.180;5.800;2024-03-17T08:13:46;5.85;;;2.08;;
55090;SDS011;40985;53.180;5.800;2024-03-17T08:16:12;9.90;;;2.38;;
55090;SDS011;40985;53.180;5.800;2024-03-17T08:18:38;8.75;;;2.25;;
55090;SDS011;40985;53.180;5.800;2024-03-17T08:21:05;6.57;;;2.55;;
55090;SDS011;40985;53.180;5.800;2024-03-17T08:23:31;7.70;;;2.70;;
55090;SDS011;40985;53.180;5.800;2024-03-17T08:25:59;5.75;;;2.28;;
55090;SDS011;40985;53.180;5.800;2024-03-17T08:28:26;9.13;;;3.47;;
55090;SDS011;40985;53.180;5.800;2024-03-17T08:30:59;9.15;;;2.53;;
55090;SDS011;40985;53.180;5.800;2024-03-17T08:33:26;8.20;;;3.05;;
55090;SDS011;40985;53.180;5.800;2024-03-17T08:36:01;7.78;;;3.42;;
55090;SDS011;40985;53.180;5.800;2024-03-17T08:38:28;11.57;;;3.85;;
55090;SDS011;40985;53.180;5.800;2024-03-17T08:40:56;7.25;;;3.40;;
55090;SDS011;40985;53.180;5.800;2024-03-17T08:43:23;7.45;;;3.30;;
55090;SDS011;40985;53.180;5.800;2024-03-17T08:46:02;9.75;;;4.53;;
55090;SDS011;40985;53.180;5.800;2024-03-17T08:48:31;8.95;;;4.53;;
55090;SDS011;40985;53.180;5.800;2024-03-17T08:51:01;10.30;;;4.25;;
55090;SDS011;40985;53.180;5.800;2024-03-17T08:53:28;7.03;;;3.97;;
55090;SDS011;40985;53.180;5.800;2024-03-17T08:55:54;11.80;;;4.88;;
55090;SDS011;40985;53.180;5.800;2024-03-17T08:58:21;9.55;;;4.85;;
55090;SDS011;40985;53.180;5.800;2024-03-17T09:00:47;6.80;;;3.90;;
55090;SDS011;40985;53.180;5.800;2024-03-17T09:03:13;6.18;;;3.92;;
55090;SDS011;40985;53.180;5.800;2024-03-17T09:05:41;7.55;;;4.10;;
55090;SDS011;40985;53.180;5.800;2024-03-17T09:08:16;9.02;;;4.05;;
55090;SDS011;40985;53.180;5.800;2024-03-17T09:10:45;10.23;;;4.63;;
55090;SDS011;40985;53.180;5.800;2024-03-17T09:13:15;6.18;;;4.25;;
55090;SDS011;40985;53.180;5.800;2024-03-17T09:18:25;9.38;;;4.85;;
55090;SDS011;40985;53.180;5.800;2024-03-17T09:21:04;7.60;;;4.68;;
55090;SDS011;40985;53.180;5.800;2024-03-17T09:23:32;10.07;;;5.20;;
55090;SDS011;40985;53.180;5.800;2024-03-17T09:28:30;10.45;;;5.43;;
55090;SDS011;40985;53.180;5.800;2024-03-17T09:30:56;10.57;;;5.38;;
55090;SDS011;40985;53.180;5.800;2024-03-17T09:33:23;6.53;;;5.32;;
55090;SDS011;40985;53.180;5.800;2024-03-17T09:35:56;9.40;;;5.90;;
55090;SDS011;40985;53.180;5.800;2024-03-17T09:38:26;8.63;;;5.82;;
55090;SDS011;40985;53.180;5.800;2024-03-17T09:40:53;6.22;;;5.10;;
55090;SDS011;40985;53.180;5.800;2024-03-17T09:43:22;12.85;;;6.90;;
55090;SDS011;40985;53.180;5.800;2024-03-17T09:45:56;8.02;;;6.32;;
55090;SDS011;40985;53.180;5.800;2024-03-17T09:48:22;8.95;;;5.80;;
55090;SDS011;40985;53.180;5.800;2024-03-17T09:50:55;11.63;;;6.55;;
55090;SDS011;40985;53.180;5.800;2024-03-17T09:53:28;11.23;;;6.43;;
55090;SDS011;40985;53.180;5.800;2024-03-17T09:56:10;11.27;;;6.40;;
55090;SDS011;40985;53.180;5.800;2024-03-17T09:58:38;7.75;;;5.30;;
55090;SDS011;40985;53.180;5.800;2024-03-17T10:01:04;14.00;;;6.72;;
55090;SDS011;40985;53.180;5.800;2024-03-17T10:06:16;10.27;;;6.22;;
55090;SDS011;40985;53.180;5.800;2024-03-17T10:08:50;12.20;;;6.90;;
55090;SDS011;40985;53.180;5.800;2024-03-17T10:11:18;10.25;;;6.60;;
55090;SDS011;40985;53.180;5.800;2024-03-17T10:13:45;7.50;;;5.43;;
55090;SDS011;40985;53.180;5.800;2024-03-17T10:16:23;9.10;;;6.05;;
55090;SDS011;40985;53.180;5.800;2024-03-17T10:19:05;8.93;;;5.63;;
55090;SDS011;40985;53.180;5.800;2024-03-17T10:21:44;9.15;;;5.90;;
55090;SDS011;40985;53.180;5.800;2024-03-17T10:26:49;8.35;;;6.22;;
55090;SDS011;40985;53.180;5.800;2024-03-17T10:29:20;8.68;;;5.97;;
55090;SDS011;40985;53.180;5.800;2024-03-17T10:31:52;6.97;;;6.05;;
55090;SDS011;40985;53.180;5.800;2024-03-17T10:34:19;10.02;;;5.97;;
55090;SDS011;40985;53.180;5.800;2024-03-17T10:36:45;7.72;;;5.68;;
55090;SDS011;40985;53.180;5.800;2024-03-17T10:39:26;9.48;;;6.28;;
55090;SDS011;40985;53.180;5.800;2024-03-17T10:41:56;9.13;;;5.47;;
55090;SDS011;40985;53.180;5.800;2024-03-17T10:44:24;7.40;;;6.03;;
55090;SDS011;40985;53.180;5.800;2024-03-17T10:46:52;8.48;;;6.10;;
55090;SDS011;40985;53.180;5.800;2024-03-17T10:49:21;9.52;;;6.07;;
55090;SDS011;40985;53.180;5.800;2024-03-17T10:51:49;8.60;;;5.82;;
55090;SDS011;40985;53.180;5.800;2024-03-17T10:54:23;6.65;;;5.15;;
55090;SDS011;40985;53.180;5.800;2024-03-17T10:56:56;6.35;;;5.15;;
55090;SDS011;40985;53.180;5.800;2024-03-17T10:59:38;8.60;;;5.65;;
55090;SDS011;40985;53.180;5.800;2024-03-17T11:02:13;5.80;;;5.05;;
55090;SDS011;40985;53.180;5.800;2024-03-17T11:04:48;7.28;;;5.60;;
55090;SDS011;40985;53.180;5.800;2024-03-17T11:07:16;6.38;;;5.30;;
55090;SDS011;40985;53.180;5.800;2024-03-17T11:09:44;7.20;;;5.55;;
55090;SDS011;40985;53.180;5.800;2024-03-17T11:17:49;10.95;;;6.05;;
55090;SDS011;40985;53.180;5.800;2024-03-17T11:20:17;9.57;;;4.70;;
55090;SDS011;40985;53.180;5.800;2024-03-17T11:22:49;5.60;;;4.85;;
55090;SDS011;40985;53.180;5.800;2024-03-17T11:51:46;5.55;;;4.05;;
55090;SDS011;40985;53.180;5.800;2024-03-17T11:54:14;6.78;;;3.78;;
55090;SDS011;40985;53.180;5.800;2024-03-17T11:56:51;7.03;;;4.18;;
55090;SDS011;40985;53.180;5.800;2024-03-17T11:59:17;5.18;;;3.90;;
55090;SDS011;40985;53.180;5.800;2024-03-17T12:01:47;4.82;;;4.25;;
55090;SDS011;40985;53.180;5.800;2024-03-17T12:04:17;4.63;;;4.18;;
55090;SDS011;40985;53.180;5.800;2024-03-17T12:06:45;6.22;;;4.40;;
55090;SDS011;40985;53.180;5.800;2024-03-17T12:11:50;7.40;;;4.65;;
55090;SDS011;40985;53.180;5.800;2024-03-17T12:14:26;6.78;;;4.63;;
55090;SDS011;40985;53.180;5.800;2024-03-17T12:16:55;5.43;;;4.50;;
55090;SDS011;40985;53.180;5.800;2024-03-17T12:19:23;8.13;;;4.95;;
55090;SDS011;40985;53.180;5.800;2024-03-17T12:21:51;6.55;;;4.40;;
55090;SDS011;40985;53.180;5.800;2024-03-17T12:24:20;5.38;;;4.88;;
55090;SDS011;40985;53.180;5.800;2024-03-17T12:26:51;6.40;;;4.28;;
55090;SDS011;40985;53.180;5.800;2024-03-17T12:29:33;7.80;;;5.05;;
55090;SDS011;40985;53.180;5.800;2024-03-17T12:34:43;5.60;;;4.70;;
55090;SDS011;40985;53.180;5.800;2024-03-17T12:37:14;5.63;;;5.05;;
55090;SDS011;40985;53.180;5.800;2024-03-17T12:39:43;5.15;;;4.50;;
55090;SDS011;40985;53.180;5.800;2024-03-17T12:44:54;5.43;;;5.03;;
55090;SDS011;40985;53.180;5.800;2024-03-17T12:47:21;6.70;;;4.82;;
55090;SDS011;40985;53.180;5.800;2024-03-17T12:49:49;5.20;;;4.80;;
55090;SDS011;40985;53.180;5.800;2024-03-17T12:52:31;6.28;;;5.03;;
55090;SDS011;40985;53.180;5.800;2024-03-17T12:55:01;10.93;;;6.05;;
55090;SDS011;40985;53.180;5.800;2024-03-17T12:57:47;5.13;;;4.63;;
55090;SDS011;40985;53.180;5.800;2024-03-17T13:03:31;7.25;;;5.25;;
55090;SDS011;40985;53.180;5.800;2024-03-17T13:05:58;6.03;;;5.07;;
55090;SDS011;40985;53.180;5.800;2024-03-17T13:08:24;6.38;;;5.55;;
55090;SDS011;40985;53.180;5.800;2024-03-17T13:10:50;6.82;;;5.57;;
55090;SDS011;40985;53.180;5.800;2024-03-17T13:13:16;6.25;;;5.28;;
55090;SDS011;40985;53.180;5.800;2024-03-17T13:15:42;5.18;;;4.65;;
55090;SDS011;40985;53.180;5.800;2024-03-17T13:18:08;6.00;;;4.53;;
55090;SDS011;40985;53.180;5.800;2024-03-17T13:20:34;6.20;;;5.22;;
55090;SDS011;40985;53.180;5.800;2024-03-17T13:23:00;5.60;;;5.03;;
55090;SDS011;40985;53.180;5.800;2024-03-17T13:25:27;4.97;;;4.57;;
55090;SDS011;40985;53.180;5.800;2024-03-17T13:30:25;5.07;;;4.15;;
55090;SDS011;40985;53.180;5.800;2024-03-17T13:32:54;5.38;;;4.88;;
55090;SDS011;40985;53.180;5.800;2024-03-17T13:35:26;5.05;;;4.55;;
55090;SDS011;40985;53.180;5.800;2024-03-17T13:37:54;5.22;;;4.72;;
55090;SDS011;40985;53.180;5.800;2024-03-17T13:40:24;6.53;;;4.93;;
55090;SDS011;40985;53.180;5.800;2024-03-17T13:42:51;7.47;;;4.80;;
55090;SDS011;40985;53.180;5.800;2024-03-17T13:45:19;5.63;;;5.05;;
55090;SDS011;40985;53.180;5.800;2024-03-17T13:47:47;6.18;;;5.57;;
55090;SDS011;40985;53.180;5.800;2024-03-17T13:50:17;6.55;;;5.50;;
55090;SDS011;40985;53.180;5.800;2024-03-17T13:52:43;5.50;;;4.95;;
55090;SDS011;40985;53.180;5.800;2024-03-17T13:55:13;6.82;;;5.15;;
55090;SDS011;40985;53.180;5.800;2024-03-17T13:57:39;5.28;;;4.78;;
55090;SDS011;40985;53.180;5.800;2024-03-17T14:00:05;5.13;;;4.68;;
55090;SDS011;40985;53.180;5.800;2024-03-17T14:02:32;7.85;;;5.38;;
55090;SDS011;40985;53.180;5.800;2024-03-17T14:04:58;6.72;;;5.35;;
55090;SDS011;40985;53.180;5.800;2024-03-17T14:07:24;6.30;;;5.07;;
55090;SDS011;40985;53.180;5.800;2024-03-17T14:09:51;5.80;;;5.32;;
55090;SDS011;40985;53.180;5.800;2024-03-17T14:12:17;6.47;;;5.15;;
55090;SDS011;40985;53.180;5.800;2024-03-17T14:14:42;8.32;;;5.47;;
55090;SDS011;40985;53.180;5.800;2024-03-17T14:17:08;5.75;;;5.20;;
55090;SDS011;40985;53.180;5.800;2024-03-17T14:19:34;6.15;;;5.65;;
55090;SDS011;40985;53.180;5.800;2024-03-17T14:22:00;6.63;;;5.28;;
55090;SDS011;40985;53.180;5.800;2024-03-17T14:24:26;7.25;;;5.93;;
55090;SDS011;40985;53.180;5.800;2024-03-17T14:26:52;6.78;;;5.43;;
55090;SDS011;40985;53.180;5.800;2024-03-17T14:29:17;9.63;;;6.05;;
55090;SDS011;40985;53.180;5.800;2024-03-17T14:31:43;7.63;;;5.80;;
55090;SDS011;40985;53.180;5.800;2024-03-17T14:34:10;5.57;;;5.18;;
55090;SDS011;40985;53.180;5.800;2024-03-17T14:36:36;5.45;;;5.05;;
55090;SDS011;40985;53.180;5.800;2024-03-17T14:39:02;5.85;;;5.40;;
55090;SDS011;40985;53.180;5.800;2024-03-17T14:41:28;6.38;;;5.30;;
55090;SDS011;40985;53.180;5.800;2024-03-17T14:43:55;6.45;;;5.65;;
55090;SDS011;40985;53.180;5.800;2024-03-17T14:46:22;6.03;;;5.20;;
55090;SDS011;40985;53.180;5.800;2024-03-17T14:48:52;5.97;;;5.38;;
55090;SDS011;40985;53.180;5.800;2024-03-17T14:51:18;5.78;;;5.15;;
55090;SDS011;40985;53.180;5.800;2024-03-17T14:53:46;7.47;;;6.13;;
55090;SDS011;40985;53.180;5.800;2024-03-17T14:56:17;6.10;;;5.68;;
55090;SDS011;40985;53.180;5.800;2024-03-17T14:58:44;5.75;;;5.13;;
55090;SDS011;40985;53.180;5.800;2024-03-17T15:01:11;6.82;;;5.57;;
55090;SDS011;40985;53.180;5.800;2024-03-17T15:03:37;7.72;;;5.10;;
55090;SDS011;40985;53.180;5.800;2024-03-17T15:06:17;5.10;;;4.63;;
55090;SDS011;40985;53.180;5.800;2024-03-17T15:08:43;5.65;;;5.05;;
55090;SDS011;40985;53.180;5.800;2024-03-17T15:11:09;6.43;;;4.68;;
55090;SDS011;40985;53.180;5.800;2024-03-17T15:13:35;6.63;;;5.13;;
55090;SDS011;40985;53.180;5.800;2024-03-17T15:16:02;5.97;;;5.38;;
55090;SDS011;40985;53.180;5.800;2024-03-17T15:18:31;5.72;;;5.32;;
55090;SDS011;40985;53.180;5.800;2024-03-17T15:20:59;8.10;;;5.38;;
55090;SDS011;40985;53.180;5.800;2024-03-17T15:23:25;5.75;;;5.18;;
55090;SDS011;40985;53.180;5.800;2024-03-17T15:28:36;6.82;;;5.43;;
55090;SDS011;40985;53.180;5.800;2024-03-17T15:31:08;6.50;;;5.00;;
55090;SDS011;40985;53.180;5.800;2024-03-17T15:33:34;6.32;;;5.22;;
55090;SDS011;40985;53.180;5.800;2024-03-17T15:36:05;6.45;;;5.90;;
55090;SDS011;40985;53.180;5.800;2024-03-17T15:38:32;7.28;;;5.78;;
55090;SDS011;40985;53.180;5.800;2024-03-17T15:41:05;6.43;;;5.82;;
55090;SDS011;40985;53.180;5.800;2024-03-17T15:43:34;5.40;;;4.97;;
55090;SDS011;40985;53.180;5.800;2024-03-17T15:46:05;5.82;;;5.22;;
55090;SDS011;40985;53.180;5.800;2024-03-17T15:48:33;6.35;;;5.60;;
55090;SDS011;40985;53.180;5.800;2024-03-17T15:50:59;7.30;;;6.03;;